sensor_id;sensor_type;location;lat;lon;timestamp;pressure;altitude;pressure_sealevel;temperature;humidity
67818;BME280;54614;47.576;7.524;2023-01-27T00:00:15;98689.69;;;22.43;31.28
67818;BME280;54614;47.576;7.524;2023-01-27T00:02:42;98687.84;;;22.44;31.29
67818;BME280;54614;47.576;7.524;2023-01-27T00:05:10;98690.72;;;22.42;31.39
67818;BME280;54614;47.576;7.524;2023-01-27T00:07:37;98684.34;;;22.43;31.44
67818;BME280;54614;47.576;7.524;2023-01-27T00:10:05;98682.88;;;22.41;31.52
67818;BME280;54614;47.576;7.524;2023-01-27T00:12:31;98674.84;;;22.41;31.49
67818;BME280;54614;47.576;7.524;2023-01-27T00:15:16;98681.22;;;22.40;31.28
67818;BME280;54614;47.576;7.524;2023-01-27T00:17:42;98678.09;;;22.36;31.60
67818;BME280;54614;47.576;7.524;2023-01-27T00:20:09;98675.59;;;22.35;31.50
67818;BME280;54614;47.576;7.524;2023-01-27T00:22:35;98674.38;;;22.37;31.82
67818;BME280;54614;47.576;7.524;2023-01-27T00:25:19;98671.06;;;22.35;31.62
67818;BME280;54614;47.576;7.524;2023-01-27T00:27:45;98669.63;;;22.33;31.63
67818;BME280;54614;47.576;7.524;2023-01-27T00:30:12;98669.41;;;22.34;31.29
67818;BME280;54614;47.576;7.524;2023-01-27T00:32:38;98664.06;;;22.34;31.43
67818;BME280;54614;47.576;7.524;2023-01-27T00:35:22;98663.44;;;22.32;31.55
67818;BME280;54614;47.576;7.524;2023-01-27T00:37:50;98660.75;;;22.32;31.28
67818;BME280;54614;47.576;7.524;2023-01-27T00:40:16;98655.38;;;22.32;31.66
67818;BME280;54614;47.576;7.524;2023-01-27T00:42:43;98663.44;;;22.32;31.51
67818;BME280;54614;47.576;7.524;2023-01-27T00:45:09;98660.94;;;22.31;31.46
67818;BME280;54614;47.576;7.524;2023-01-27T00:47:54;98654.38;;;22.33;31.58
67818;BME280;54614;47.576;7.524;2023-01-27T00:50:20;98652.72;;;22.32;31.57
67818;BME280;54614;47.576;7.524;2023-01-27T00:52:46;98650.41;;;22.29;31.55
67818;BME280;54614;47.576;7.524;2023-01-27T00:55:13;98647.94;;;22.28;31.59
67818;BME280;54614;47.576;7.524;2023-01-27T00:57:43;98645.69;;;22.31;31.37
67818;BME280;54614;47.576;7.524;2023-01-27T01:00:09;98651.84;;;22.25;31.83
67818;BME280;54614;47.576;7.524;2023-01-27T01:02:36;98651.00;;;22.25;31.48
67818;BME280;54614;47.576;7.524;2023-01-27T01:05:02;98653.50;;;22.26;31.56
67818;BME280;54614;47.576;7.524;2023-01-27T01:07:28;98647.31;;;22.26;31.67
67818;BME280;54614;47.576;7.524;2023-01-27T01:09:54;98645.44;;;22.26;31.54
67818;BME280;54614;47.576;7.524;2023-01-27T01:12:20;98649.34;;;22.24;31.39
67818;BME280;54614;47.576;7.524;2023-01-27T01:14:46;98651.19;;;22.23;31.35
67818;BME280;54614;47.576;7.524;2023-01-27T01:17:12;98654.28;;;22.20;31.57
67818;BME280;54614;47.576;7.524;2023-01-27T01:19:38;98655.94;;;22.21;31.66
67818;BME280;54614;47.576;7.524;2023-01-27T01:22:03;98653.88;;;22.23;31.47
67818;BME280;54614;47.576;7.524;2023-01-27T01:24:29;98653.25;;;22.21;31.52
67818;BME280;54614;47.576;7.524;2023-01-27T01:26:55;98662.94;;;22.22;31.59
67818;BME280;54614;47.576;7.524;2023-01-27T01:29:21;98654.28;;;22.20;31.70
67818;BME280;54614;47.576;7.524;2023-01-27T01:31:50;98654.28;;;22.20;31.37
67818;BME280;54614;47.576;7.524;2023-01-27T01:34:18;98655.69;;;22.16;31.49
67818;BME280;54614;47.576;7.524;2023-01-27T01:36:44;98651.59;;;22.20;31.36
67818;BME280;54614;47.576;7.524;2023-01-27T01:39:09;98656.50;;;22.16;31.67
67818;BME280;54614;47.576;7.524;2023-01-27T01:41:35;98653.63;;;22.18;31.70
67818;BME280;54614;47.576;7.524;2023-01-27T01:44:23;98641.66;;;22.14;31.75
67818;BME280;54614;47.576;7.524;2023-01-27T01:46:49;98649.06;;;22.12;31.52
67818;BME280;54614;47.576;7.524;2023-01-27T01:49:21;98648.66;;;22.15;31.49
67818;BME280;54614;47.576;7.524;2023-01-27T01:51:59;98648.03;;;22.13;31.69
67818;BME280;54614;47.576;7.524;2023-01-27T01:54:33;98641.00;;;22.12;31.83
67818;BME280;54614;47.576;7.524;2023-01-27T01:57:06;98644.72;;;22.11;31.80
67818;BME280;54614;47.576;7.524;2023-01-27T01:59:42;98639.34;;;22.11;31.49
67818;BME280;54614;47.576;7.524;2023-01-27T02:02:16;98636.69;;;22.11;31.57
67818;BME280;54614;47.576;7.524;2023-01-27T02:04:51;98635.22;;;22.08;31.59
67818;BME280;54614;47.576;7.524;2023-01-27T02:07:34;98628.22;;;22.07;31.64
67818;BME280;54614;47.576;7.524;2023-01-27T02:10:05;98621.00;;;22.08;31.66
67818;BME280;54614;47.576;7.524;2023-01-27T02:12:31;98625.72;;;22.06;31.70
67818;BME280;54614;47.576;7.524;2023-01-27T02:14:57;98618.72;;;22.05;31.50
67818;BME280;54614;47.576;7.524;2023-01-27T02:17:23;98620.56;;;22.04;31.70
67818;BME280;54614;47.576;7.524;2023-01-27T02:25:42;98618.25;;;22.01;31.67
67818;BME280;54614;47.576;7.524;2023-01-27T02:29:26;98609.38;;;22.01;31.79
67818;BME280;54614;47.576;7.524;2023-01-27T02:34:43;98616.34;;;21.95;31.62
67818;BME280;54614;47.576;7.524;2023-01-27T02:37:09;98616.13;;;21.97;31.69
67818;BME280;54614;47.576;7.524;2023-01-27T02:39:40;98610.59;;;21.98;31.92
67818;BME280;54614;47.576;7.524;2023-01-27T02:42:11;98611.03;;;22.02;31.60
67818;BME280;54614;47.576;7.524;2023-01-27T02:44:45;98610.78;;;21.97;31.62
67818;BME280;54614;47.576;7.524;2023-01-27T02:47:47;98612.44;;;21.98;31.57
67818;BME280;54614;47.576;7.524;2023-01-27T02:50:16;98622.13;;;21.99;31.63
67818;BME280;54614;47.576;7.524;2023-01-27T02:52:47;98623.16;;;21.98;31.58
67818;BME280;54614;47.576;7.524;2023-01-27T02:55:38;98619.84;;;21.96;31.88
67818;BME280;54614;47.576;7.524;2023-01-27T02:58:26;98614.09;;;21.99;31.53
67818;BME280;54614;47.576;7.524;2023-01-27T03:00:57;98614.72;;;22.01;31.59
67818;BME280;54614;47.576;7.524;2023-01-27T03:03:23;98609.56;;;21.99;31.51
67818;BME280;54614;47.576;7.524;2023-01-27T03:05:50;98612.25;;;21.99;31.55
67818;BME280;54614;47.576;7.524;2023-01-27T03:08:35;98612.06;;;22.01;31.64
67818;BME280;54614;47.576;7.524;2023-01-27T03:14:08;98607.72;;;22.00;31.47
67818;BME280;54614;47.576;7.524;2023-01-27T03:16:52;98604.84;;;22.01;31.63
67818;BME280;54614;47.576;7.524;2023-01-27T03:19:37;98603.00;;;22.02;31.71
67818;BME280;54614;47.576;7.524;2023-01-27T03:24:55;98604.69;;;22.03;31.61
67818;BME280;54614;47.576;7.524;2023-01-27T03:27:21;98611.88;;;22.02;31.60
67818;BME280;54614;47.576;7.524;2023-01-27T03:29:46;98616.38;;;22.02;31.26
67818;BME280;54614;47.576;7.524;2023-01-27T03:32:38;98618.81;;;21.97;31.58
67818;BME280;54614;47.576;7.524;2023-01-27T03:35:21;98622.31;;;21.97;31.64
67818;BME280;54614;47.576;7.524;2023-01-27T03:37:48;98613.84;;;21.94;31.63
67818;BME280;54614;47.576;7.524;2023-01-27T03:40:33;98620.03;;;21.94;31.45
67818;BME280;54614;47.576;7.524;2023-01-27T03:43:44;98617.16;;;21.96;31.38
67818;BME280;54614;47.576;7.524;2023-01-27T03:46:29;98616.53;;;21.94;31.69
67818;BME280;54614;47.576;7.524;2023-01-27T03:49:25;98609.75;;;21.98;31.33
67818;BME280;54614;47.576;7.524;2023-01-27T03:52:00;98607.66;;;21.93;31.59
67818;BME280;54614;47.576;7.524;2023-01-27T03:54:26;98615.88;;;21.92;31.66
67818;BME280;54614;47.576;7.524;2023-01-27T03:56:51;98615.88;;;21.92;31.38
67818;BME280;54614;47.576;7.524;2023-01-27T03:59:17;98615.88;;;21.92;31.68
67818;BME280;54614;47.576;7.524;2023-01-27T04:01:43;98620.63;;;21.90;31.39
67818;BME280;54614;47.576;7.524;2023-01-27T04:04:10;98624.13;;;21.90;31.67
67818;BME280;54614;47.576;7.524;2023-01-27T04:06:54;98615.44;;;21.88;31.46
67818;BME280;54614;47.576;7.524;2023-01-27T04:11:55;98618.06;;;21.81;31.82
67818;BME280;54614;47.576;7.524;2023-01-27T04:16:59;98619.28;;;21.79;31.49
67818;BME280;54614;47.576;7.524;2023-01-27T04:19:25;98615.78;;;21.78;31.69
67818;BME280;54614;47.576;7.524;2023-01-27T04:21:52;98613.75;;;21.80;31.85
67818;BME280;54614;47.576;7.524;2023-01-27T04:24:18;98617.44;;;21.79;31.64
67818;BME280;54614;47.576;7.524;2023-01-27T04:27:06;98610.63;;;21.77;31.58
67818;BME280;54614;47.576;7.524;2023-01-27T04:29:36;98610.81;;;21.75;31.54
67818;BME280;54614;47.576;7.524;2023-01-27T04:32:04;98614.13;;;21.77;31.97
67818;BME280;54614;47.576;7.524;2023-01-27T04:34:34;98619.47;;;21.77;31.71
67818;BME280;54614;47.576;7.524;2023-01-27T04:37:01;98613.69;;;21.74;31.87
67818;BME280;54614;47.576;7.524;2023-01-27T04:39:28;98612.84;;;21.73;31.72
67818;BME280;54614;47.576;7.524;2023-01-27T04:41:57;98609.78;;;21.76;31.72
67818;BME280;54614;47.576;7.524;2023-01-27T04:44:24;98619.66;;;21.76;31.73
67818;BME280;54614;47.576;7.524;2023-01-27T04:46:50;98635.91;;;21.74;31.87
67818;BME280;54614;47.576;7.524;2023-01-27T04:49:17;98631.78;;;21.72;31.66
67818;BME280;54614;47.576;7.524;2023-01-27T04:51:43;98628.53;;;21.76;31.87
67818;BME280;54614;47.576;7.524;2023-01-27T04:54:09;98629.16;;;21.78;32.61
67818;BME280;54614;47.576;7.524;2023-01-27T04:56:39;98623.63;;;21.80;31.92
67818;BME280;54614;47.576;7.524;2023-01-27T04:59:09;98624.84;;;21.77;31.93
67818;BME280;54614;47.576;7.524;2023-01-27T05:01:35;98626.03;;;21.75;31.86
67818;BME280;54614;47.576;7.524;2023-01-27T05:04:01;98627.25;;;21.72;31.87
67818;BME280;54614;47.576;7.524;2023-01-27T05:06:28;98638.16;;;21.71;31.90
67818;BME280;54614;47.576;7.524;2023-01-27T05:08:54;98632.81;;;21.71;31.65
67818;BME280;54614;47.576;7.524;2023-01-27T05:11:20;98631.59;;;21.73;31.62
67818;BME280;54614;47.576;7.524;2023-01-27T05:13:47;98636.31;;;21.71;32.04
67818;BME280;54614;47.576;7.524;2023-01-27T05:16:20;98620.50;;;21.76;31.59
67818;BME280;54614;47.576;7.524;2023-01-27T05:18:50;98628.19;;;21.86;31.60
67818;BME280;54614;47.576;7.524;2023-01-27T05:21:22;98626.84;;;21.97;31.44
67818;BME280;54614;47.576;7.524;2023-01-27T05:23:50;98622.53;;;21.96;31.61
67818;BME280;54614;47.576;7.524;2023-01-27T05:26:25;98623.72;;;21.93;31.23
67818;BME280;54614;47.576;7.524;2023-01-27T05:28:52;98625.81;;;21.98;31.35
67818;BME280;54614;47.576;7.524;2023-01-27T05:31:24;98624.56;;;21.94;31.76
67818;BME280;54614;47.576;7.524;2023-01-27T05:33:52;98628.31;;;21.99;31.56
67818;BME280;54614;47.576;7.524;2023-01-27T05:36:21;98629.97;;;22.00;31.52
67818;BME280;54614;47.576;7.524;2023-01-27T05:38:47;98634.31;;;22.01;31.68
67818;BME280;54614;47.576;7.524;2023-01-27T05:41:15;98630.25;;;22.05;31.82
67818;BME280;54614;47.576;7.524;2023-01-27T05:43:44;98631.72;;;22.08;31.79
67818;BME280;54614;47.576;7.524;2023-01-27T05:46:26;98635.84;;;22.10;31.57
67818;BME280;54614;47.576;7.524;2023-01-27T05:48:58;98640.19;;;22.11;31.62
67818;BME280;54614;47.576;7.524;2023-01-27T05:51:25;98647.00;;;22.14;31.59
67818;BME280;54614;47.576;7.524;2023-01-27T05:53:53;98643.56;;;22.20;32.07
67818;BME280;54614;47.576;7.524;2023-01-27T05:56:22;98635.13;;;22.23;32.29
67818;BME280;54614;47.576;7.524;2023-01-27T05:58:48;98632.69;;;22.28;31.93
67818;BME280;54614;47.576;7.524;2023-01-27T06:01:21;98625.53;;;22.35;32.08
67818;BME280;54614;47.576;7.524;2023-01-27T06:03:48;98612.31;;;22.34;31.93
67818;BME280;54614;47.576;7.524;2023-01-27T06:06:17;98628.19;;;22.35;31.95
67818;BME280;54614;47.576;7.524;2023-01-27T06:08:44;98625.75;;;22.40;31.81
67818;BME280;54614;47.576;7.524;2023-01-27T06:11:11;98624.53;;;22.43;31.95
67818;BME280;54614;47.576;7.524;2023-01-27T06:13:37;98635.06;;;22.44;31.89
67818;BME280;54614;47.576;7.524;2023-01-27T06:16:12;98642.53;;;22.49;32.09
67818;BME280;54614;47.576;7.524;2023-01-27T06:18:39;98658.41;;;22.50;32.39
67818;BME280;54614;47.576;7.524;2023-01-27T06:21:08;98650.00;;;22.60;33.58
67818;BME280;54614;47.576;7.524;2023-01-27T06:23:35;98653.50;;;22.61;31.60
67818;BME280;54614;47.576;7.524;2023-01-27T06:26:07;98648.97;;;22.61;32.04
67818;BME280;54614;47.576;7.524;2023-01-27T06:28:35;98647.56;;;22.65;31.86
67818;BME280;54614;47.576;7.524;2023-01-27T06:31:16;98644.25;;;22.63;31.69
67818;BME280;54614;47.576;7.524;2023-01-27T06:33:44;98646.72;;;22.65;31.84
67818;BME280;54614;47.576;7.524;2023-01-27T06:36:14;98648.59;;;22.64;31.76
67818;BME280;54614;47.576;7.524;2023-01-27T06:38:41;98641.81;;;22.68;31.72
67818;BME280;54614;47.576;7.524;2023-01-27T06:41:07;98641.81;;;22.68;31.75
67818;BME280;54614;47.576;7.524;2023-01-27T06:43:33;98643.50;;;22.76;35.12
67818;BME280;54614;47.576;7.524;2023-01-27T06:45:59;98654.09;;;22.84;31.89
67818;BME280;54614;47.576;7.524;2023-01-27T06:48:27;98652.00;;;22.79;31.82
67818;BME280;54614;47.576;7.524;2023-01-27T06:50:55;98656.50;;;22.79;31.50
67818;BME280;54614;47.576;7.524;2023-01-27T06:53:21;98656.34;;;22.80;31.27
67818;BME280;54614;47.576;7.524;2023-01-27T06:55:48;98658.75;;;22.75;31.54
67818;BME280;54614;47.576;7.524;2023-01-27T06:58:14;98661.63;;;22.74;31.35
67818;BME280;54614;47.576;7.524;2023-01-27T07:00:41;98653.19;;;22.77;31.41
67818;BME280;54614;47.576;7.524;2023-01-27T07:03:12;98664.53;;;22.72;31.76
67818;BME280;54614;47.576;7.524;2023-01-27T07:05:39;98658.56;;;22.77;31.62
67818;BME280;54614;47.576;7.524;2023-01-27T07:08:06;98670.13;;;22.77;31.35
67818;BME280;54614;47.576;7.524;2023-01-27T07:10:32;98664.31;;;22.74;31.60
67818;BME280;54614;47.576;7.524;2023-01-27T07:15:30;98653.59;;;22.74;31.73
67818;BME280;54614;47.576;7.524;2023-01-27T07:17:59;98661.44;;;22.75;31.59
67818;BME280;54614;47.576;7.524;2023-01-27T07:20:25;98663.28;;;22.75;31.42
67818;BME280;54614;47.576;7.524;2023-01-27T07:23:04;98661.03;;;22.78;31.37
67818;BME280;54614;47.576;7.524;2023-01-27T07:25:32;98663.94;;;22.77;31.26
67818;BME280;54614;47.576;7.524;2023-01-27T07:28:00;98660.63;;;22.75;31.59
67818;BME280;54614;47.576;7.524;2023-01-27T07:30:28;98666.41;;;22.78;31.41
67818;BME280;54614;47.576;7.524;2023-01-27T07:32:54;98674.66;;;22.77;31.50
67818;BME280;54614;47.576;7.524;2023-01-27T07:35:21;98679.66;;;22.80;31.52
67818;BME280;54614;47.576;7.524;2023-01-27T07:37:47;98675.94;;;22.81;31.55
67818;BME280;54614;47.576;7.524;2023-01-27T07:40:13;98680.47;;;22.80;31.43
67818;BME280;54614;47.576;7.524;2023-01-27T07:42:40;98694.25;;;22.77;31.41
67818;BME280;54614;47.576;7.524;2023-01-27T07:45:07;98694.91;;;22.79;31.73
67818;BME280;54614;47.576;7.524;2023-01-27T07:47:34;98694.53;;;22.82;31.42
67818;BME280;54614;47.576;7.524;2023-01-27T07:49:59;98695.97;;;22.85;31.53
67818;BME280;54614;47.576;7.524;2023-01-27T07:52:25;98693.28;;;22.85;31.49
67818;BME280;54614;47.576;7.524;2023-01-27T07:54:51;98686.66;;;22.81;31.25
67818;BME280;54614;47.576;7.524;2023-01-27T07:57:17;98686.66;;;22.81;31.51
67818;BME280;54614;47.576;7.524;2023-01-27T07:59:43;98696.38;;;22.82;31.58
67818;BME280;54614;47.576;7.524;2023-01-27T08:02:10;98700.72;;;22.83;31.32
67818;BME280;54614;47.576;7.524;2023-01-27T08:04:35;98697.41;;;22.81;31.41
67818;BME280;54614;47.576;7.524;2023-01-27T08:07:01;98701.94;;;22.80;31.35
67818;BME280;54614;47.576;7.524;2023-01-27T08:09:27;98698.41;;;22.80;31.42
67818;BME280;54614;47.576;7.524;2023-01-27T08:11:53;98706.91;;;22.83;31.31
67818;BME280;54614;47.576;7.524;2023-01-27T08:14:19;98698.84;;;22.83;31.58
67818;BME280;54614;47.576;7.524;2023-01-27T08:16:44;98706.06;;;22.83;31.54
67818;BME280;54614;47.576;7.524;2023-01-27T08:19:10;98709.38;;;22.85;31.26
67818;BME280;54614;47.576;7.524;2023-01-27T08:21:36;98704.84;;;22.86;31.29
67818;BME280;54614;47.576;7.524;2023-01-27T08:24:02;98712.28;;;22.83;31.32
67818;BME280;54614;47.576;7.524;2023-01-27T08:26:28;98711.44;;;22.83;31.35
67818;BME280;54614;47.576;7.524;2023-01-27T08:28:54;98706.47;;;22.80;31.57
67818;BME280;54614;47.576;7.524;2023-01-27T08:31:20;98717.44;;;22.85;31.45
67818;BME280;54614;47.576;7.524;2023-01-27T08:33:52;98715.97;;;22.82;31.49
67818;BME280;54614;47.576;7.524;2023-01-27T08:36:20;98719.47;;;22.83;31.47
67818;BME280;54614;47.576;7.524;2023-01-27T08:38:48;98723.00;;;22.83;31.40
67818;BME280;54614;47.576;7.524;2023-01-27T08:41:23;98713.50;;;22.81;31.56
67818;BME280;54614;47.576;7.524;2023-01-27T08:43:50;98718.47;;;22.84;31.79
67818;BME280;54614;47.576;7.524;2023-01-27T08:46:16;98726.06;;;22.80;32.18
67818;BME280;54614;47.576;7.524;2023-01-27T08:48:42;98719.69;;;22.81;32.05
67818;BME280;54614;47.576;7.524;2023-01-27T08:51:12;98720.31;;;22.83;31.85
67818;BME280;54614;47.576;7.524;2023-01-27T08:53:39;98730.66;;;22.87;32.15
67818;BME280;54614;47.576;7.524;2023-01-27T08:56:11;98724.66;;;22.85;31.89
67818;BME280;54614;47.576;7.524;2023-01-27T08:58:38;98726.50;;;22.84;32.05
67818;BME280;54614;47.576;7.524;2023-01-27T09:01:05;98724.44;;;22.86;31.91
67818;BME280;54614;47.576;7.524;2023-01-27T09:03:33;98736.81;;;22.80;31.67
67818;BME280;54614;47.576;7.524;2023-01-27T09:06:00;98739.09;;;22.83;31.77
67818;BME280;54614;47.576;7.524;2023-01-27T09:08:26;98736.59;;;22.82;31.86
67818;BME280;54614;47.576;7.524;2023-01-27T09:10:53;98747.53;;;22.80;32.16
67818;BME280;54614;47.576;7.524;2023-01-27T09:13:19;98753.53;;;22.82;32.00
67818;BME280;54614;47.576;7.524;2023-01-27T09:15:50;98751.22;;;22.79;32.14
67818;BME280;54614;47.576;7.524;2023-01-27T09:18:16;98750.22;;;22.80;32.11
67818;BME280;54614;47.576;7.524;2023-01-27T09:20:42;98751.22;;;22.79;32.33
67818;BME280;54614;47.576;7.524;2023-01-27T09:23:07;98749.38;;;22.80;32.38
67818;BME280;54614;47.576;7.524;2023-01-27T09:25:33;98754.53;;;22.81;32.07
67818;BME280;54614;47.576;7.524;2023-01-27T09:28:00;98752.41;;;22.77;31.92
67818;BME280;54614;47.576;7.524;2023-01-27T09:30:27;98749.75;;;22.77;32.01
67818;BME280;54614;47.576;7.524;2023-01-27T09:32:59;98746.41;;;22.75;32.06
67818;BME280;54614;47.576;7.524;2023-01-27T09:35:36;98748.28;;;22.74;32.39
67818;BME280;54614;47.576;7.524;2023-01-27T09:38:05;98745.41;;;22.76;32.49
67818;BME280;54614;47.576;7.524;2023-01-27T09:55:31;98755.28;;;22.75;32.42
67818;BME280;54614;47.576;7.524;2023-01-27T10:01:15;98753.84;;;22.73;32.34
67818;BME280;54614;47.576;7.524;2023-01-27T10:07:15;98770.75;;;22.73;32.43
67818;BME280;54614;47.576;7.524;2023-01-27T10:18:34;98765.38;;;22.73;32.67
67818;BME280;54614;47.576;7.524;2023-01-27T10:21:38;98753.59;;;22.68;32.31
67818;BME280;54614;47.576;7.524;2023-01-27T10:24:12;98754.19;;;22.63;32.44
67818;BME280;54614;47.576;7.524;2023-01-27T10:27:04;98749.25;;;22.67;32.37
67818;BME280;54614;47.576;7.524;2023-01-27T10:29:46;98749.69;;;22.70;32.16
67818;BME280;54614;47.576;7.524;2023-01-27T10:32:26;98747.00;;;22.70;32.34
67818;BME280;54614;47.576;7.524;2023-01-27T10:49:22;98739.56;;;22.66;32.24
67818;BME280;54614;47.576;7.524;2023-01-27T10:52:15;98736.88;;;22.66;32.29
67818;BME280;54614;47.576;7.524;2023-01-27T10:55:11;98750.28;;;22.66;32.25
67818;BME280;54614;47.576;7.524;2023-01-27T10:58:10;98744.72;;;22.67;32.33
67818;BME280;54614;47.576;7.524;2023-01-27T11:00:48;98750.09;;;22.67;32.27
67818;BME280;54614;47.576;7.524;2023-01-27T11:03:27;98741.00;;;22.68;32.36
67818;BME280;54614;47.576;7.524;2023-01-27T11:06:00;98741.59;;;22.64;32.38
67818;BME280;54614;47.576;7.524;2023-01-27T11:08:33;98749.84;;;22.62;32.54
67818;BME280;54614;47.576;7.524;2023-01-27T11:11:04;98738.28;;;22.62;32.76
67818;BME280;54614;47.576;7.524;2023-01-27T11:14:16;98733.13;;;22.60;32.45
67818;BME280;54614;47.576;7.524;2023-01-27T11:17:37;98738.69;;;22.59;32.36
67818;BME280;54614;47.576;7.524;2023-01-27T11:23:28;98730.00;;;22.57;32.41
67818;BME280;54614;47.576;7.524;2023-01-27T11:37:39;98720.69;;;22.52;32.44
67818;BME280;54614;47.576;7.524;2023-01-27T11:40:30;98718.41;;;22.49;32.57
67818;BME280;54614;47.576;7.524;2023-01-27T11:42:58;98709.72;;;22.47;32.41
67818;BME280;54614;47.576;7.524;2023-01-27T11:45:26;98720.25;;;22.49;32.46
67818;BME280;54614;47.576;7.524;2023-01-27T11:47:57;98712.22;;;22.49;32.31
67818;BME280;54614;47.576;7.524;2023-01-27T11:50:29;98718.97;;;22.45;32.40
67818;BME280;54614;47.576;7.524;2023-01-27T11:53:10;98718.34;;;22.43;32.53
67818;BME280;54614;47.576;7.524;2023-01-27T11:55:51;98726.81;;;22.46;32.47
67818;BME280;54614;47.576;7.524;2023-01-27T12:01:02;98734.63;;;22.41;32.59
67818;BME280;54614;47.576;7.524;2023-01-27T12:07:05;98730.91;;;22.42;32.82
67818;BME280;54614;47.576;7.524;2023-01-27T12:09:38;98730.09;;;22.42;32.55
67818;BME280;54614;47.576;7.524;2023-01-27T12:12:26;98725.31;;;22.37;32.39
67818;BME280;54614;47.576;7.524;2023-01-27T12:14:58;98718.53;;;22.41;32.27
67818;BME280;54614;47.576;7.524;2023-01-27T12:17:46;98727.59;;;22.40;32.60
67818;BME280;54614;47.576;7.524;2023-01-27T12:21:07;98711.53;;;22.40;32.48
67818;BME280;54614;47.576;7.524;2023-01-27T12:23:48;98710.88;;;22.38;32.74
67818;BME280;54614;47.576;7.524;2023-01-27T12:26:14;98712.31;;;22.34;32.28
67818;BME280;54614;47.576;7.524;2023-01-27T12:28:51;98699.47;;;22.30;32.11
67818;BME280;54614;47.576;7.524;2023-01-27T12:31:29;98694.31;;;22.28;31.91
67818;BME280;54614;47.576;7.524;2023-01-27T12:34:04;98702.16;;;22.30;31.95
67818;BME280;54614;47.576;7.524;2023-01-27T12:36:43;98708.16;;;22.32;31.59
67818;BME280;54614;47.576;7.524;2023-01-27T12:42:04;98702.56;;;22.27;31.58
67818;BME280;54614;47.576;7.524;2023-01-27T12:44:42;98703.38;;;22.27;31.53
67818;BME280;54614;47.576;7.524;2023-01-27T12:47:26;98700.88;;;22.26;31.02
67818;BME280;54614;47.576;7.524;2023-01-27T12:50:23;98698.03;;;22.27;31.37
67818;BME280;54614;47.576;7.524;2023-01-27T12:53:11;98700.88;;;22.26;31.58
67818;BME280;54614;47.576;7.524;2023-01-27T12:58:42;98678.81;;;22.24;31.88
67818;BME280;54614;47.576;7.524;2023-01-27T13:01:34;98672.25;;;22.26;32.03
67818;BME280;54614;47.576;7.524;2023-01-27T13:09:49;98682.53;;;22.23;31.72
67818;BME280;54614;47.576;7.524;2023-01-27T13:12:29;98687.25;;;22.21;32.02
67818;BME280;54614;47.576;7.524;2023-01-27T13:15:10;98693.44;;;22.21;31.96
67818;BME280;54614;47.576;7.524;2023-01-27T13:17:50;98703.13;;;22.22;32.31
67818;BME280;54614;47.576;7.524;2023-01-27T13:20:45;98695.09;;;22.22;32.34
67818;BME280;54614;47.576;7.524;2023-01-27T13:23:25;98700.84;;;22.19;32.33
67818;BME280;54614;47.576;7.524;2023-01-27T13:28:50;98701.84;;;22.18;32.27
67818;BME280;54614;47.576;7.524;2023-01-27T13:37:36;98725.09;;;22.11;32.21
67818;BME280;54614;47.576;7.524;2023-01-27T13:40:21;98721.56;;;22.10;32.28
67818;BME280;54614;47.576;7.524;2023-01-27T13:43:22;98715.63;;;22.15;32.26
67818;BME280;54614;47.576;7.524;2023-01-27T13:46:00;98713.34;;;22.12;32.61
67818;BME280;54614;47.576;7.524;2023-01-27T13:48:37;98714.56;;;22.09;32.50
67818;BME280;54614;47.576;7.524;2023-01-27T13:51:10;98717.03;;;22.11;32.56
67818;BME280;54614;47.576;7.524;2023-01-27T13:53:37;98712.31;;;22.13;32.52
67818;BME280;54614;47.576;7.524;2023-01-27T14:06:01;98713.09;;;22.07;32.35
67818;BME280;54614;47.576;7.524;2023-01-27T14:12:11;98713.72;;;22.09;32.46
67818;BME280;54614;47.576;7.524;2023-01-27T14:14:58;98711.63;;;22.04;32.59
67818;BME280;54614;47.576;7.524;2023-01-27T14:17:45;98716.97;;;22.04;32.55
67818;BME280;54614;47.576;7.524;2023-01-27T14:30:20;98723.47;;;21.95;31.97
67818;BME280;54614;47.576;7.524;2023-01-27T14:38:32;98720.22;;;22.00;32.69
67818;BME280;54614;47.576;7.524;2023-01-27T14:47:13;98733.59;;;22.00;32.70
67818;BME280;54614;47.576;7.524;2023-01-27T14:50:01;98736.28;;;22.00;32.76
67818;BME280;54614;47.576;7.524;2023-01-27T14:53:04;98739.53;;;21.95;32.22
67818;BME280;54614;47.576;7.524;2023-01-27T14:55:55;98740.16;;;21.97;32.11
67818;BME280;54614;47.576;7.524;2023-01-27T15:01:53;98741.00;;;21.98;32.58
67818;BME280;54614;47.576;7.524;2023-01-27T15:05:02;98752.91;;;21.95;32.68
67818;BME280;54614;47.576;7.524;2023-01-27T15:10:24;98753.94;;;21.94;32.71
67818;BME280;54614;47.576;7.524;2023-01-27T15:13:19;98763.81;;;21.94;32.50
67818;BME280;54614;47.576;7.524;2023-01-27T15:16:29;98761.16;;;21.94;32.87
67818;BME280;54614;47.576;7.524;2023-01-27T15:27:51;98771.41;;;21.90;32.39
67818;BME280;54614;47.576;7.524;2023-01-27T15:30:28;98776.75;;;21.90;32.56
67818;BME280;54614;47.576;7.524;2023-01-27T15:32:55;98785.44;;;21.92;32.63
67818;BME280;54614;47.576;7.524;2023-01-27T15:38:14;98775.75;;;21.91;32.69
67818;BME280;54614;47.576;7.524;2023-01-27T15:41:06;98776.19;;;21.95;32.74
67818;BME280;54614;47.576;7.524;2023-01-27T15:43:39;98774.84;;;21.84;32.72
67818;BME280;54614;47.576;7.524;2023-01-27T15:46:31;98777.41;;;21.56;33.23
67818;BME280;54614;47.576;7.524;2023-01-27T15:48:59;98777.69;;;21.46;33.93
67818;BME280;54614;47.576;7.524;2023-01-27T15:51:30;98783.50;;;21.20;35.23
67818;BME280;54614;47.576;7.524;2023-01-27T15:53:59;98788.13;;;21.27;35.32
67818;BME280;54614;47.576;7.524;2023-01-27T15:56:49;98781.13;;;21.26;35.54
67818;BME280;54614;47.576;7.524;2023-01-27T15:59:29;98793.03;;;21.23;35.66
67818;BME280;54614;47.576;7.524;2023-01-27T16:02:23;98794.50;;;21.26;35.64
67818;BME280;54614;47.576;7.524;2023-01-27T16:08:31;98793.56;;;21.48;34.12
67818;BME280;54614;47.576;7.524;2023-01-27T16:10:51;98786.00;;;21.51;34.04
67818;BME280;54614;47.576;7.524;2023-01-27T16:19:29;98798.88;;;21.63;33.11
67818;BME280;54614;47.576;7.524;2023-01-27T16:22:05;98796.88;;;21.50;33.45